Time;durP1;ratioP1;P1;durP2;ratioP2;P2;SDS_P1;SDS_P2;PMS_P1;PMS_P2;Temp;Humidity;BMP_temperature;BMP_pressure;BME280_temperature;BME280_humidity;BME280_pressure;Samples;Min_cycle;Max_cycle;Signal;HPM_P1;HPM_P2
2022/04/06 00:00:47;;;;;;;30.70;16.08;;;9.40;99.90;;;;;;5025716;28;20037;-76
2022/04/06 00:03:13;;;;;;;33.03;15.90;;;9.40;99.90;;;;;;5027835;28;20472;-76
2022/04/06 00:05:39;;;;;;;34.13;15.80;;;9.40;99.90;;;;;;5027984;28;20049;-76
2022/04/06 00:08:05;;;;;;;29.17;14.43;;;9.50;99.90;;;;;;5040890;28;20133;-76
2022/04/06 00:10:31;;;;;;;35.47;16.02;;;9.50;99.90;;;;;;5024403;28;20033;-76
2022/04/06 00:12:58;;;;;;;27.70;14.93;;;9.50;99.90;;;;;;5024814;28;20187;-76
2022/04/06 00:15:24;;;;;;;27.58;15.23;;;9.50;99.90;;;;;;5028768;28;20544;-76
2022/04/06 00:17:49;;;;;;;38.90;16.02;;;9.60;99.90;;;;;;5016698;28;20058;-76
2022/04/06 00:20:16;;;;;;;35.53;15.60;;;9.50;99.90;;;;;;5015934;28;20077;-76
2022/04/06 00:22:42;;;;;;;33.15;15.10;;;9.50;99.90;;;;;;5025820;28;20503;-76
2022/04/06 00:25:08;;;;;;;34.55;15.25;;;9.50;99.90;;;;;;5026979;28;20437;-76
2022/04/06 00:27:34;;;;;;;28.63;14.40;;;9.50;99.90;;;;;;5039422;28;20169;-76
2022/04/06 00:30:00;;;;;;;30.02;14.05;;;9.50;99.90;;;;;;5016694;28;20497;-76
2022/04/06 00:32:26;;;;;;;30.10;14.95;;;9.50;99.90;;;;;;5016206;28;20110;-76
2022/04/06 00:37:36;;;;;;;32.95;14.88;;;9.50;99.90;;;;;;5043979;28;20090;-76
2022/04/06 00:40:03;;;;;;;34.15;14.57;;;9.50;99.90;;;;;;5025669;28;20374;-76
2022/04/06 00:42:29;;;;;;;30.25;15.40;;;9.50;99.90;;;;;;5024773;28;20522;-76
2022/04/06 00:44:54;;;;;;;28.77;14.48;;;9.40;99.90;;;;;;5029789;28;20055;-76
2022/04/06 00:47:20;;;;;;;33.25;14.30;;;9.50;99.90;;;;;;5010410;28;20037;-76
2022/04/06 00:49:46;;;;;;;26.60;13.73;;;9.50;99.90;;;;;;5042769;28;20049;-76
2022/04/06 00:52:12;;;;;;;28.17;14.00;;;9.50;99.90;;;;;;5025448;28;20030;-76
2022/04/06 00:54:39;;;;;;;30.63;14.55;;;9.50;99.90;;;;;;5028219;28;20052;-76
2022/04/06 00:57:04;;;;;;;35.40;14.20;;;9.50;99.90;;;;;;5028473;28;20064;-76
2022/04/06 00:59:31;;;;;;;24.30;12.57;;;9.50;99.90;;;;;;5028426;28;20539;-76
2022/04/06 01:01:58;;;;;;;26.85;13.05;;;9.50;99.90;;;;;;5028093;28;20045;-76
2022/04/06 01:04:24;;;;;;;23.38;12.80;;;9.60;99.90;;;;;;5030345;28;20041;-76
2022/04/06 01:06:51;;;;;;;28.33;12.80;;;9.60;99.90;;;;;;5030615;28;20045;-76
2022/04/06 01:09:19;;;;;;;26.88;13.07;;;9.60;99.90;;;;;;5029909;28;20033;-76
2022/04/06 01:11:46;;;;;;;27.88;12.82;;;9.50;99.90;;;;;;5029546;28;20052;-76
2022/04/06 01:14:20;;;;;;;32.97;14.07;;;9.50;99.90;;;;;;5044570;28;20120;-76
2022/04/06 01:18:06;;;;;;;26.23;13.60;;;9.50;99.90;;;;;;4969200;28;20058;-76
2022/04/06 01:22:07;;;;;;;28.50;13.18;;;9.50;99.90;;;;;;4991609;28;20056;-76
2022/04/06 01:26:22;;;;;;;25.17;12.23;;;9.50;99.90;;;;;;4944709;28;20059;-76
2022/04/06 01:30:34;;;;;;;27.40;13.25;;;9.60;99.90;;;;;;4901316;29;20181;-77
2022/04/06 01:38:23;;;;;;;30.75;13.18;;;9.50;99.90;;;;;;4870710;29;20055;-76
2022/04/06 01:42:08;;;;;;;23.58;11.82;;;9.50;99.90;;;;;;4862925;29;20110;-76
2022/04/06 02:01:39;;;;;;;24.17;11.13;;;9.50;99.90;;;;;;6320031;22;20516;-75
2022/04/06 02:05:57;;;;;;;21.92;9.43;;;9.50;99.90;;;;;;6292595;22;20022;-76
2022/04/06 02:09:58;;;;;;;27.73;9.80;;;9.40;99.90;;;;;;6236903;22;20014;-76
2022/04/06 02:13:19;;;;;;;21.65;9.68;;;9.40;99.90;;;;;;6157984;22;20068;-76
2022/04/06 02:15:46;;;;;;;22.52;9.50;;;9.50;99.90;;;;;;6165288;22;20098;-76
2022/04/06 02:18:11;;;;;;;22.20;9.23;;;9.50;99.90;;;;;;6212830;22;20792;-76
2022/04/06 02:20:37;;;;;;;23.42;9.73;;;9.50;99.90;;;;;;6238191;22;20011;-75
2022/04/06 02:23:03;;;;;;;22.13;9.68;;;9.50;99.90;;;;;;6222083;22;20440;-76
2022/04/06 02:25:28;;;;;;;18.83;8.13;;;9.50;99.90;;;;;;6247181;22;20016;-76
2022/04/06 02:27:54;;;;;;;21.45;8.35;;;9.50;99.90;;;;;;6246443;22;20019;-76
2022/04/06 02:30:21;;;;;;;21.90;8.20;;;9.50;99.90;;;;;;6221865;22;20439;-76
2022/04/06 02:32:47;;;;;;;23.52;8.40;;;9.50;99.90;;;;;;6221621;22;20004;-76
2022/04/06 02:35:13;;;;;;;20.17;8.35;;;9.50;99.90;;;;;;6246216;22;20671;-75
2022/04/06 02:37:41;;;;;;;25.98;8.98;;;9.60;99.90;;;;;;6246699;22;20012;-75
2022/04/06 02:40:09;;;;;;;24.63;9.55;;;9.60;99.90;;;;;;6247423;22;20196;-76
2022/04/06 02:42:34;;;;;;;29.38;9.90;;;9.60;99.90;;;;;;6221943;22;20022;-75
2022/04/06 02:45:00;;;;;;;26.50;8.25;;;9.60;99.90;;;;;;6246886;22;20436;-76
2022/04/06 02:47:26;;;;;;;24.50;9.35;;;9.60;99.90;;;;;;6246364;22;20052;-76
2022/04/06 02:49:51;;;;;;;22.25;8.65;;;9.50;99.90;;;;;;6243228;22;20015;-75
2022/04/06 02:52:17;;;;;;;27.02;9.45;;;9.50;99.90;;;;;;6238896;22;20090;-75
2022/04/06 02:54:43;;;;;;;31.90;9.38;;;9.50;99.90;;;;;;6235282;22;20015;-75
2022/04/06 02:57:08;;;;;;;25.48;9.73;;;9.50;99.90;;;;;;6262163;22;20447;-75
2022/04/06 02:59:34;;;;;;;28.15;8.73;;;9.50;99.90;;;;;;6240717;22;20007;-76
2022/04/06 03:02:00;;;;;;;27.42;9.43;;;9.60;99.90;;;;;;6263798;22;20043;-75
2022/04/06 03:04:25;;;;;;;25.63;8.80;;;9.50;99.90;;;;;;6265922;22;20015;-75
2022/04/06 03:06:51;;;;;;;28.20;9.52;;;9.60;99.90;;;;;;6265501;22;20016;-75
2022/04/06 03:09:17;;;;;;;29.00;9.65;;;9.60;99.90;;;;;;6265118;22;20064;-75
2022/04/06 03:11:43;;;;;;;33.08;10.38;;;9.60;99.90;;;;;;6265415;22;20008;-75
2022/04/06 03:14:09;;;;;;;29.38;10.77;;;9.60;99.90;;;;;;6266308;22;20016;-75
2022/04/06 03:16:34;;;;;;;28.48;9.95;;;9.60;99.90;;;;;;6265056;22;20023;-75
2022/04/06 03:19:00;;;;;;;27.05;10.02;;;9.60;99.90;;;;;;6266061;22;20023;-75
2022/04/06 03:21:26;;;;;;;28.70;10.80;;;9.60;99.90;;;;;;6217935;22;20107;-77
2022/04/06 03:23:51;;;;;;;26.45;10.82;;;9.60;99.90;;;;;;6204849;23;20035;-77
2022/04/06 03:26:17;;;;;;;31.13;10.82;;;9.60;99.90;;;;;;6205706;23;20021;-77
2022/04/06 03:28:43;;;;;;;34.63;12.07;;;9.60;99.90;;;;;;6205085;23;20005;-77
2022/04/06 03:31:08;;;;;;;30.85;11.95;;;9.60;99.90;;;;;;6180263;23;20009;-77
2022/04/06 03:33:34;;;;;;;29.15;11.68;;;9.50;99.90;;;;;;6181085;23;20020;-77
2022/04/06 03:36:00;;;;;;;31.98;12.98;;;9.60;99.90;;;;;;6205437;23;20005;-77
2022/04/06 03:38:26;;;;;;;31.27;12.98;;;9.60;99.90;;;;;;6205400;23;20076;-77
2022/04/06 03:40:52;;;;;;;33.55;13.05;;;9.60;99.90;;;;;;6204981;23;20008;-76
2022/04/06 03:43:18;;;;;;;33.80;13.00;;;9.60;99.90;;;;;;6311983;22;20004;-77
2022/04/06 03:45:43;;;;;;;34.08;13.68;;;9.60;99.90;;;;;;6205081;23;20074;-77
2022/04/06 03:48:09;;;;;;;30.52;12.95;;;9.60;99.90;;;;;;6203424;23;20081;-77
2022/04/06 03:50:35;;;;;;;31.73;13.32;;;9.60;99.90;;;;;;6204394;22;20012;-76
2022/04/06 03:53:01;;;;;;;27.20;13.50;;;9.60;99.90;;;;;;6204835;22;20100;-76
2022/04/06 03:55:27;;;;;;;30.02;12.52;;;9.60;99.90;;;;;;6181267;23;20032;-76
2022/04/06 03:57:52;;;;;;;34.63;13.07;;;9.60;99.90;;;;;;6177001;23;20012;-76
2022/04/06 04:00:18;;;;;;;33.78;13.65;;;9.70;99.90;;;;;;6179555;23;20091;-77
2022/04/06 04:02:45;;;;;;;26.77;11.23;;;9.60;99.90;;;;;;6205192;23;20013;-76
2022/04/06 04:05:12;;;;;;;27.33;11.20;;;9.70;99.90;;;;;;6205854;23;20085;-76
2022/04/06 04:07:37;;;;;;;28.20;11.77;;;9.70;99.90;;;;;;6204783;23;20013;-76
2022/04/06 04:10:10;;;;;;;23.27;11.02;;;9.70;99.90;;;;;;6203920;23;20015;-76
2022/04/06 04:12:36;;;;;;;;;;;9.70;99.90;;;;;;6205564;23;20028;-76
2022/04/06 04:15:03;;;;;;;24.92;11.10;;;9.70;99.90;;;;;;6203891;23;19918;-76
2022/04/06 04:17:28;;;;;;;21.42;9.30;;;9.70;99.90;;;;;;6205129;23;20352;-76
2022/04/06 04:19:54;;;;;;;26.00;10.10;;;9.70;99.90;;;;;;6201576;22;20013;-76
2022/04/06 04:22:20;;;;;;;27.40;9.25;;;9.70;99.90;;;;;;6154768;23;20024;-76
2022/04/06 04:24:45;;;;;;;27.52;9.25;;;9.70;99.90;;;;;;6180457;22;20021;-76
2022/04/06 04:27:11;;;;;;;19.15;8.48;;;9.70;99.90;;;;;;6180395;23;20015;-76
2022/04/06 04:29:37;;;;;;;31.20;10.32;;;9.70;99.90;;;;;;6179068;23;20044;-76
2022/04/06 04:32:02;;;;;;;20.85;9.13;;;9.60;99.90;;;;;;6178795;23;20020;-76
2022/04/06 04:34:28;;;;;;;21.67;9.52;;;9.60;99.90;;;;;;6180531;22;20017;-74
2022/04/06 04:36:54;;;;;;;22.25;8.80;;;9.60;99.90;;;;;;6179645;22;20051;-75
2022/04/06 04:39:20;;;;;;;23.63;8.27;;;9.60;99.90;;;;;;6155110;23;20020;-76
2022/04/06 04:41:47;;;;;;;18.70;8.18;;;9.50;99.90;;;;;;6179654;22;20084;-76
2022/04/06 04:44:13;;;;;;;23.85;8.70;;;9.60;99.90;;;;;;6179893;22;20013;-76
2022/04/06 04:46:39;;;;;;;20.90;8.45;;;9.50;99.90;;;;;;6179345;23;20099;-76
2022/04/06 04:49:05;;;;;;;22.20;7.70;;;9.50;99.90;;;;;;6178732;23;20103;-75
2022/04/06 04:51:30;;;;;;;22.08;7.30;;;9.50;99.90;;;;;;6179274;23;20017;-77
2022/04/06 04:53:57;;;;;;;18.25;7.35;;;9.60;99.90;;;;;;6181373;23;20398;-75
2022/04/06 04:56:30;;;;;;;18.13;7.68;;;9.60;99.90;;;;;;6156471;23;20017;-77
2022/04/06 04:58:56;;;;;;;20.77;8.07;;;9.50;99.90;;;;;;6155328;23;20627;-78
2022/04/06 05:01:22;;;;;;;20.83;8.25;;;9.50;99.90;;;;;;6180353;23;20096;-76
2022/04/06 05:03:48;;;;;;;19.88;8.48;;;9.50;99.90;;;;;;6180817;23;20044;-76
2022/04/06 05:06:14;;;;;;;18.38;7.95;;;9.40;99.90;;;;;;6155170;23;20458;-76
2022/04/06 05:08:40;;;;;;;23.85;8.10;;;9.40;99.90;;;;;;6153980;23;20013;-76
2022/04/06 05:11:05;;;;;;;18.55;8.50;;;9.40;99.90;;;;;;6179509;23;20080;-76
2022/04/06 05:13:31;;;;;;;21.23;8.00;;;9.30;99.90;;;;;;6180386;23;20032;-76
2022/04/06 05:15:58;;;;;;;22.80;8.57;;;9.30;99.90;;;;;;6179967;23;20009;-76
2022/04/06 05:18:24;;;;;;;21.42;8.10;;;9.40;99.90;;;;;;6180718;23;20012;-75
2022/04/06 05:20:52;;;;;;;21.48;8.00;;;9.30;99.90;;;;;;6163642;23;20017;-75
2022/04/06 05:23:17;;;;;;;21.90;7.93;;;9.30;99.90;;;;;;6205330;23;20005;-76
2022/04/06 05:25:43;;;;;;;24.83;8.00;;;9.30;99.90;;;;;;6205516;23;20095;-76
2022/04/06 05:28:09;;;;;;;23.30;6.88;;;9.30;99.90;;;;;;6204442;22;20013;-76
2022/04/06 05:30:35;;;;;;;21.55;7.18;;;9.30;99.90;;;;;;6179608;23;20042;-75
2022/04/06 05:33:00;;;;;;;21.13;7.35;;;9.30;99.90;;;;;;6179858;23;20015;-76
2022/04/06 05:35:26;;;;;;;16.10;6.82;;;9.30;99.90;;;;;;6205359;22;20494;-75
2022/04/06 05:37:55;;;;;;;20.27;6.85;;;9.30;99.90;;;;;;6203230;23;20016;-75
2022/04/06 05:40:21;;;;;;;21.15;6.93;;;9.30;99.90;;;;;;6203720;23;20063;-76
2022/04/06 05:42:47;;;;;;;17.38;6.03;;;9.40;99.90;;;;;;6204585;22;20020;-76
2022/04/06 05:45:13;;;;;;;18.02;6.03;;;9.40;99.90;;;;;;6203923;23;20012;-76
2022/04/06 05:47:38;;;;;;;15.07;5.80;;;9.40;99.90;;;;;;6204546;23;20088;-76
2022/04/06 05:50:06;;;;;;;13.65;4.95;;;9.40;99.90;;;;;;6178553;23;20105;-76
2022/04/06 05:52:32;;;;;;;18.00;5.70;;;9.40;99.90;;;;;;6203715;23;20016;-76
2022/04/06 05:54:58;;;;;;;16.73;5.82;;;9.40;99.90;;;;;;6203817;22;20048;-76
2022/04/06 05:57:23;;;;;;;14.77;5.32;;;9.40;99.90;;;;;;6205062;23;20020;-75
2022/04/06 05:59:49;;;;;;;14.18;4.70;;;9.30;99.90;;;;;;6201296;23;20035;-76
2022/04/06 06:02:15;;;;;;;16.60;4.82;;;9.30;99.90;;;;;;6203387;23;20031;-76
2022/04/06 06:04:41;;;;;;;13.55;4.72;;;9.40;99.90;;;;;;6178024;23;20020;-76
2022/04/06 06:07:07;;;;;;;13.00;3.97;;;9.40;99.90;;;;;;6203250;23;20005;-76
2022/04/06 06:09:35;;;;;;;13.73;3.95;;;9.20;99.90;;;;;;6201862;23;20622;-75
2022/04/06 06:12:01;;;;;;;13.13;4.38;;;9.30;99.90;;;;;;6203469;23;20088;-75
2022/04/06 06:14:27;;;;;;;12.82;4.18;;;9.40;99.90;;;;;;6203257;23;20464;-75
2022/04/06 06:16:53;;;;;;;9.07;3.25;;;9.30;99.90;;;;;;6203445;23;20043;-75
2022/04/06 06:19:19;;;;;;;12.30;3.08;;;9.30;99.90;;;;;;6201121;23;20018;-75
2022/04/06 06:21:45;;;;;;;11.48;3.67;;;9.30;99.90;;;;;;6200396;23;20444;-75
2022/04/06 06:24:11;;;;;;;9.23;3.15;;;9.30;99.90;;;;;;6201782;23;20095;-75
2022/04/06 06:26:38;;;;;;;12.88;3.08;;;9.30;99.90;;;;;;6201968;23;20013;-75
2022/04/06 06:29:04;;;;;;;12.38;3.40;;;9.30;99.90;;;;;;6202824;23;20516;-75
2022/04/06 06:31:31;;;;;;;11.52;3.22;;;9.40;99.90;;;;;;6179885;23;20637;-75
2022/04/06 06:34:00;;;;;;;13.25;3.05;;;9.30;99.90;;;;;;6180499;23;20070;-75
2022/04/06 06:36:26;;;;;;;14.40;3.20;;;9.30;99.90;;;;;;6207402;23;20560;-76
2022/04/06 06:38:53;;;;;;;13.70;3.10;;;9.40;99.90;;;;;;6207959;23;20024;-75
2022/04/06 06:41:19;;;;;;;11.52;3.55;;;9.30;99.90;;;;;;6206181;23;20019;-74
2022/04/06 06:43:48;;;;;;;11.80;3.45;;;9.30;99.90;;;;;;6179531;23;20518;-74
2022/04/06 06:46:15;;;;;;;12.77;3.80;;;9.20;99.90;;;;;;6206572;23;20375;-74
2022/04/06 06:48:40;;;;;;;11.65;3.53;;;9.20;99.90;;;;;;6206256;23;20408;-74
2022/04/06 06:51:06;;;;;;;14.73;3.55;;;9.20;99.90;;;;;;6205035;23;20020;-76
2022/04/06 06:53:31;;;;;;;10.75;3.10;;;9.20;99.90;;;;;;6205462;23;20020;-74
2022/04/06 06:55:57;;;;;;;12.45;3.00;;;9.30;99.90;;;;;;6180986;22;20009;-75
2022/04/06 06:58:23;;;;;;;13.85;3.58;;;9.30;99.90;;;;;;6206111;23;20087;-74
2022/04/06 07:00:49;;;;;;;14.63;3.60;;;9.40;99.90;;;;;;6204323;23;20134;-75
2022/04/06 07:03:14;;;;;;;12.50;3.50;;;9.30;99.90;;;;;;6203262;23;20017;-74
2022/04/06 07:05:40;;;;;;;12.98;3.42;;;9.30;99.90;;;;;;6206105;23;20027;-74
2022/04/06 07:08:06;;;;;;;15.32;3.30;;;9.30;99.90;;;;;;6204233;23;20016;-74
2022/04/06 07:10:32;;;;;;;11.55;3.15;;;9.30;99.90;;;;;;6207438;23;20074;-75
2022/04/06 07:12:58;;;;;;;13.95;3.83;;;9.40;99.90;;;;;;6207853;23;20013;-75
2022/04/06 07:15:24;;;;;;;11.65;3.45;;;9.30;99.90;;;;;;6206671;23;20016;-75
2022/04/06 07:17:57;;;;;;;16.23;4.13;;;9.30;99.90;;;;;;6205022;22;20021;-75
2022/04/06 07:20:25;;;;;;;8.60;3.22;;;9.30;99.90;;;;;;6205545;23;20897;-75
2022/04/06 07:22:51;;;;;;;14.43;3.85;;;9.40;99.90;;;;;;6158145;23;20405;-75
2022/04/06 07:25:18;;;;;;;15.68;3.58;;;9.30;99.90;;;;;;6207058;23;20044;-75
2022/04/06 07:27:44;;;;;;;13.75;4.72;;;9.40;99.90;;;;;;6206548;23;20352;-75
2022/04/06 07:30:12;;;;;;;14.93;3.90;;;9.50;99.90;;;;;;6206379;23;20009;-75
2022/04/06 07:32:38;;;;;;;17.20;4.10;;;9.40;99.90;;;;;;6207173;23;20408;-75
2022/04/06 07:35:05;;;;;;;10.30;3.58;;;9.40;99.90;;;;;;6207417;23;20017;-75
2022/04/06 07:37:38;;;;;;;18.00;4.53;;;9.40;99.90;;;;;;6207232;23;20012;-75
2022/04/06 07:40:05;;;;;;;15.68;4.45;;;9.30;99.90;;;;;;6206329;23;20065;-75
2022/04/06 07:42:30;;;;;;;14.10;4.38;;;9.30;99.90;;;;;;6182261;23;20445;-75
2022/04/06 07:44:56;;;;;;;15.25;4.45;;;9.40;99.90;;;;;;6206478;23;20023;-75
2022/04/06 07:47:31;;;;;;;15.38;5.05;;;9.40;99.90;;;;;;6207342;23;20055;-75
2022/04/06 07:50:03;;;;;;;16.45;4.68;;;9.40;99.90;;;;;;6206677;23;20096;-75
2022/04/06 07:52:30;;;;;;;11.10;3.65;;;9.40;99.90;;;;;;6206648;23;20386;-75
2022/04/06 07:54:55;;;;;;;14.82;4.68;;;9.40;99.90;;;;;;6206461;23;20452;-75
2022/04/06 07:57:25;;;;;;;15.63;4.93;;;9.40;99.90;;;;;;6207188;22;20107;-75
2022/04/06 07:59:52;;;;;;;18.13;5.50;;;9.50;99.90;;;;;;6205343;23;20073;-75
2022/04/06 08:02:18;;;;;;;15.30;5.30;;;9.50;99.90;;;;;;6182402;23;20145;-76
2022/04/06 08:04:44;;;;;;;20.30;5.43;;;9.60;99.90;;;;;;6206758;23;20044;-75
2022/04/06 08:07:09;;;;;;;12.73;5.00;;;9.60;99.90;;;;;;6206112;23;20463;-75
2022/04/06 08:09:35;;;;;;;25.95;7.32;;;9.70;99.90;;;;;;6206927;22;20031;-75
2022/04/06 08:12:04;;;;;;;17.77;5.68;;;9.60;99.90;;;;;;6207034;23;20013;-75
2022/04/06 08:14:30;;;;;;;16.98;5.78;;;9.60;99.90;;;;;;6206857;23;20017;-75
2022/04/06 08:16:56;;;;;;;15.35;5.70;;;9.60;99.90;;;;;;6206631;23;20106;-75
2022/04/06 08:19:23;;;;;;;14.63;5.40;;;9.70;99.90;;;;;;6207572;23;20471;-75
2022/04/06 08:21:49;;;;;;;15.75;5.53;;;9.70;99.90;;;;;;6181031;23;20463;-75
2022/04/06 08:24:15;;;;;;;16.80;5.55;;;9.60;99.90;;;;;;6207013;23;20021;-75
2022/04/06 08:26:41;;;;;;;14.88;5.63;;;9.60;99.90;;;;;;6180231;23;20321;-75
2022/04/06 08:29:07;;;;;;;22.10;5.82;;;9.60;99.90;;;;;;6207148;23;20022;-75
2022/04/06 08:31:32;;;;;;;16.33;5.00;;;9.60;99.90;;;;;;6205867;23;20048;-75
2022/04/06 08:33:58;;;;;;;12.23;4.90;;;9.60;99.90;;;;;;6207096;23;20036;-75
2022/04/06 08:36:24;;;;;;;20.55;6.00;;;9.70;99.90;;;;;;6207152;23;20016;-75
2022/04/06 08:38:49;;;;;;;16.05;5.22;;;9.50;99.90;;;;;;6207059;23;20017;-75
2022/04/06 08:41:18;;;;;;;16.00;5.80;;;9.40;99.90;;;;;;6181197;23;20042;-75
2022/04/06 08:43:47;;;;;;;16.30;5.53;;;9.40;99.90;;;;;;6206768;23;20013;-75
2022/04/06 08:46:15;;;;;;;19.20;5.60;;;9.30;99.90;;;;;;6205868;23;20644;-75
2022/04/06 08:48:43;;;;;;;15.43;4.93;;;9.40;99.90;;;;;;6207731;23;20008;-75
2022/04/06 08:51:09;;;;;;;20.58;4.90;;;9.40;99.90;;;;;;6205164;23;20464;-75
2022/04/06 08:53:40;;;;;;;15.00;4.90;;;9.40;99.90;;;;;;6206919;23;20062;-75
2022/04/06 08:56:07;;;;;;;11.93;4.15;;;9.50;99.90;;;;;;6206250;23;20008;-75
2022/04/06 08:58:33;;;;;;;13.68;4.32;;;9.40;99.90;;;;;;6206679;23;20513;-75
2022/04/06 09:00:58;;;;;;;18.38;4.72;;;9.50;99.90;;;;;;6205374;23;20013;-75
2022/04/06 09:03:24;;;;;;;13.30;3.90;;;9.40;99.90;;;;;;6206612;23;20012;-75
2022/04/06 09:06:07;;;;;;;14.75;3.97;;;9.40;99.90;;;;;;6206351;23;20021;-75
2022/04/06 09:08:40;;;;;;;;;;;9.50;99.90;;;;;;6206325;23;20507;-75
2022/04/06 09:11:11;;;;;;;11.63;3.72;;;9.40;99.90;;;;;;6206755;23;20328;-75
2022/04/06 09:13:38;;;;;;;11.52;3.78;;;9.40;99.90;;;;;;6207651;23;20444;-75
2022/04/06 09:16:11;;;;;;;13.55;3.80;;;9.50;99.90;;;;;;6205351;23;20411;-75
2022/04/06 09:18:44;;;;;;;11.05;3.85;;;9.50;99.90;;;;;;6206612;23;20058;-75
2022/04/06 09:21:19;;;;;;;13.23;4.18;;;9.50;99.90;;;;;;6181351;23;20043;-75
2022/04/06 09:23:49;;;;;;;16.50;4.65;;;9.60;99.90;;;;;;6182274;23;20619;-75
2022/04/06 09:26:20;;;;;;;9.45;3.20;;;9.80;99.90;;;;;;6204773;23;20389;-74
2022/04/06 09:28:47;;;;;;;16.08;4.00;;;9.90;99.90;;;;;;6206266;23;20360;-74
2022/04/06 09:31:15;;;;;;;10.00;3.80;;;9.80;99.90;;;;;;6205662;23;20036;-74
2022/04/06 09:33:43;;;;;;;12.35;4.35;;;9.90;99.90;;;;;;6206931;23;20074;-74
2022/04/06 09:36:20;;;;;;;13.48;3.53;;;9.90;99.90;;;;;;6206152;23;20476;-74
2022/04/06 09:38:48;;;;;;;12.07;4.13;;;10.00;99.90;;;;;;6206280;23;20021;-74
2022/04/06 09:41:18;;;;;;;13.45;4.15;;;10.20;99.90;;;;;;6205232;23;20047;-74
2022/04/06 09:43:45;;;;;;;15.35;4.20;;;10.00;99.90;;;;;;6205837;23;20356;-72
2022/04/06 09:49:08;;;;;;;9.43;3.92;;;10.20;99.90;;;;;;6206592;23;20459;-74
2022/04/06 09:51:35;;;;;;;17.13;5.10;;;10.10;99.90;;;;;;6204514;23;20333;-74
2022/04/06 09:54:06;;;;;;;11.55;4.55;;;10.20;99.90;;;;;;6205779;23;20040;-74
2022/04/06 09:56:34;;;;;;;11.48;4.10;;;10.20;99.90;;;;;;6206852;23;20495;-74
2022/04/06 09:59:02;;;;;;;17.15;5.45;;;10.20;99.90;;;;;;6181351;23;20600;-74
2022/04/06 10:01:36;;;;;;;11.00;4.35;;;10.40;99.90;;;;;;6205547;23;20399;-74
2022/04/06 10:04:09;;;;;;;18.83;5.63;;;10.60;99.90;;;;;;6205802;23;20444;-74
2022/04/06 10:06:40;;;;;;;15.75;5.03;;;10.60;99.90;;;;;;6181745;23;20035;-73
2022/04/06 10:09:08;;;;;;;14.43;5.50;;;10.60;99.90;;;;;;6205719;23;20020;-74
2022/04/06 10:11:35;;;;;;;14.93;5.10;;;10.60;99.90;;;;;;6205408;23;20021;-74
2022/04/06 10:14:03;;;;;;;14.23;4.50;;;10.60;99.90;;;;;;6204615;23;20766;-74
2022/04/06 10:16:29;;;;;;;15.63;4.80;;;10.60;99.90;;;;;;6203522;23;20047;-74
2022/04/06 10:18:57;;;;;;;12.45;5.30;;;10.70;99.90;;;;;;6202651;23;20468;-74
2022/04/06 10:21:38;;;;;;;14.95;5.80;;;10.70;99.90;;;;;;6177486;23;20360;-74
2022/04/06 10:24:41;;;;;;;16.20;5.55;;;10.70;99.90;;;;;;6203139;23;20747;-74
2022/04/06 10:27:25;;;;;;;14.00;4.53;;;10.70;99.90;;;;;;6202643;23;20341;-74
2022/04/06 10:30:22;;;;;;;14.48;4.88;;;10.70;99.90;;;;;;6201563;23;20016;-73
2022/04/06 10:32:50;;;;;;;13.77;4.93;;;10.60;99.90;;;;;;6203650;23;20374;-74
2022/04/06 10:35:24;;;;;;;12.82;4.63;;;10.70;99.90;;;;;;6203272;23;20519;-75
2022/04/06 10:37:57;;;;;;;14.52;5.03;;;10.70;99.90;;;;;;6203880;23;20382;-74
2022/04/06 10:40:24;;;;;;;15.98;5.25;;;10.50;99.90;;;;;;6178412;23;20480;-74
2022/04/06 10:42:50;;;;;;;11.57;5.05;;;10.50;99.90;;;;;;6205421;23;20344;-74
2022/04/06 10:45:29;;;;;;;12.35;4.65;;;10.40;99.90;;;;;;6204943;23;20340;-74
2022/04/06 10:48:18;;;;;;;15.80;5.28;;;10.40;99.90;;;;;;6204435;23;20013;-73
2022/04/06 10:50:48;;;;;;;11.68;5.13;;;10.40;99.90;;;;;;6205086;23;20013;-74
2022/04/06 10:53:23;;;;;;;13.02;4.93;;;10.40;99.90;;;;;;6205681;23;20012;-74
2022/04/06 10:56:11;;;;;;;14.40;5.40;;;10.50;99.90;;;;;;6205280;23;20356;-74
2022/04/06 10:58:55;;;;;;;15.68;6.03;;;10.60;99.90;;;;;;6206043;23;20343;-75
2022/04/06 11:01:33;;;;;;;11.38;6.00;;;10.40;99.90;;;;;;6205211;23;20044;-75
2022/04/06 11:04:00;;;;;;;19.80;5.85;;;10.50;99.90;;;;;;6180334;23;20471;-74
2022/04/06 11:06:41;;;;;;;13.52;5.10;;;10.50;99.90;;;;;;6205187;23;20099;-74
2022/04/06 11:12:17;;;;;;;16.20;6.65;;;10.50;99.90;;;;;;6205454;23;20023;-74
2022/04/06 11:14:49;;;;;;;15.57;7.40;;;10.50;99.90;;;;;;6205943;23;20051;-75
2022/04/06 11:17:41;;;;;;;15.13;8.00;;;10.50;99.90;;;;;;6205155;23;20663;-74
2022/04/06 11:20:28;;;;;;;16.03;7.97;;;10.50;99.90;;;;;;6204290;23;20020;-74
2022/04/06 11:22:56;;;;;;;17.27;8.30;;;10.50;99.90;;;;;;6205290;23;20048;-75
2022/04/06 11:25:30;;;;;;;14.25;7.63;;;10.50;99.90;;;;;;6205334;23;20019;-75
2022/04/06 11:28:09;;;;;;;15.00;7.25;;;10.40;99.90;;;;;;6206017;23;20051;-74
2022/04/06 11:30:36;;;;;;;14.18;7.78;;;10.50;99.90;;;;;;6204268;23;20019;-75
2022/04/06 11:33:04;;;;;;;16.20;7.18;;;10.40;99.90;;;;;;6155788;23;20332;-74
2022/04/06 11:35:36;;;;;;;15.82;8.15;;;10.60;99.90;;;;;;6204718;23;20473;-74
2022/04/06 11:38:07;;;;;;;16.95;7.72;;;10.70;99.90;;;;;;6203433;23;20016;-75
2022/04/06 11:40:37;;;;;;;16.58;7.65;;;10.90;99.90;;;;;;6177186;23;20097;-76
2022/04/06 11:43:07;;;;;;;18.33;9.20;;;11.00;99.90;;;;;;6202144;23;20468;-75
2022/04/06 11:45:40;;;;;;;14.30;7.45;;;11.10;99.90;;;;;;6177070;23;20012;-75
2022/04/06 11:48:07;;;;;;;20.15;7.68;;;11.10;99.90;;;;;;6202300;23;20012;-75
2022/04/06 11:50:37;;;;;;;12.38;7.30;;;11.10;99.90;;;;;;6202460;23;20012;-75
2022/04/06 11:53:04;;;;;;;16.85;7.65;;;11.20;99.90;;;;;;6205295;23;20051;-75
2022/04/06 11:55:50;;;;;;;17.23;7.95;;;11.10;99.90;;;;;;6205629;23;20044;-75
2022/04/06 11:58:32;;;;;;;16.35;7.85;;;11.20;99.90;;;;;;6205705;23;20017;-76
2022/04/06 12:01:04;;;;;;;15.90;7.13;;;11.30;99.90;;;;;;6206091;23;20012;-75
2022/04/06 12:03:31;;;;;;;;;;;11.30;99.90;;;;;;6206943;23;20019;-76
2022/04/06 12:05:57;;;;;;;15.35;7.90;;;11.50;99.90;;;;;;6204851;23;19916;-75
2022/04/06 12:08:23;;;;;;;16.13;7.35;;;11.60;99.90;;;;;;6205278;23;20019;-75
2022/04/06 12:10:50;;;;;;;11.90;7.55;;;11.60;99.90;;;;;;6205119;23;20009;-77
2022/04/06 12:13:18;;;;;;;19.27;8.23;;;11.80;99.90;;;;;;6206241;23;20019;-75
2022/04/06 12:15:48;;;;;;;13.23;7.57;;;11.80;99.90;;;;;;6205745;23;20415;-75
2022/04/06 12:18:15;;;;;;;13.70;7.18;;;11.80;99.90;;;;;;6204199;23;20051;-77
2022/04/06 12:20:41;;;;;;;15.82;7.40;;;11.70;99.90;;;;;;6204022;23;20061;-75
2022/04/06 12:23:09;;;;;;;13.45;7.53;;;11.60;99.90;;;;;;6205689;23;20024;-75
2022/04/06 12:25:36;;;;;;;14.43;7.32;;;11.60;99.90;;;;;;6205168;23;20027;-75
2022/04/06 12:28:28;;;;;;;16.48;7.75;;;11.70;99.90;;;;;;6205457;23;20038;-75
2022/04/06 12:31:06;;;;;;;15.35;7.57;;;11.70;99.90;;;;;;6197997;23;20099;-75
2022/04/06 12:33:44;;;;;;;11.77;6.75;;;11.70;99.90;;;;;;6204522;23;20012;-75
2022/04/06 12:36:16;;;;;;;11.75;7.32;;;11.50;99.90;;;;;;6180871;23;20338;-75
2022/04/06 12:39:10;;;;;;;14.97;6.60;;;11.40;99.90;;;;;;6205630;23;20016;-75
2022/04/06 12:41:53;;;;;;;13.85;7.38;;;11.60;99.90;;;;;;6205130;23;20240;-75
2022/04/06 12:44:19;;;;;;;14.05;7.45;;;11.50;99.90;;;;;;6205369;23;20038;-76
2022/04/06 12:46:50;;;;;;;19.50;7.40;;;11.50;99.90;;;;;;6205110;22;20062;-77
2022/04/06 12:49:25;;;;;;;12.38;7.35;;;11.50;99.90;;;;;;6205414;23;20017;-75
2022/04/06 12:52:06;;;;;;;13.88;7.43;;;11.50;99.90;;;;;;6180269;22;20012;-74
2022/04/06 12:54:33;;;;;;;15.00;6.85;;;11.50;99.90;;;;;;6204840;23;20016;-75
2022/04/06 12:57:17;;;;;;;15.38;7.72;;;11.40;99.90;;;;;;6205124;23;20044;-75
2022/04/06 12:59:47;;;;;;;13.95;7.60;;;11.40;99.90;;;;;;6204811;23;20505;-75
2022/04/06 13:02:31;;;;;;;18.02;8.27;;;11.40;99.90;;;;;;6205506;23;20020;-75
2022/04/06 13:05:05;;;;;;;12.48;8.10;;;11.40;99.90;;;;;;6204829;23;20092;-75
2022/04/06 13:07:31;;;;;;;14.20;7.97;;;11.40;99.90;;;;;;6205165;23;20017;-75
2022/04/06 13:09:59;;;;;;;15.35;7.88;;;11.30;99.90;;;;;;6204604;23;20089;-75
2022/04/06 13:12:29;;;;;;;16.27;8.00;;;11.30;99.90;;;;;;6180134;23;20019;-78
2022/04/06 13:14:57;;;;;;;12.82;7.78;;;11.40;99.90;;;;;;6205822;23;20016;-75
2022/04/06 13:17:24;;;;;;;13.57;7.55;;;11.40;99.90;;;;;;6204742;23;20009;-74
2022/04/06 13:19:50;;;;;;;10.70;6.88;;;11.40;99.90;;;;;;6203747;23;20028;-75
2022/04/06 13:22:16;;;;;;;14.13;7.82;;;11.40;99.90;;;;;;6177620;23;20024;-74
2022/04/06 13:24:43;;;;;;;12.98;6.65;;;11.40;99.90;;;;;;6179782;22;20024;-75
2022/04/06 13:27:09;;;;;;;11.75;7.10;;;11.30;99.90;;;;;;6180024;22;20044;-75
2022/04/06 13:29:36;;;;;;;11.50;7.25;;;11.30;99.90;;;;;;6154211;22;20048;-75
2022/04/06 13:32:03;;;;;;;10.45;7.60;;;11.30;99.90;;;;;;6178806;23;20009;-74